Terminal Aerodrome Forecast
Issued by NWS

Home | Current Version | Previous Version | Text Only | Print | Product List | Glossary Off
Versions: 1 2 3 4 5 6 7 8 9 10 11 12 13 14 15 16 17 18 19 20 21 22
000 FTUS41 KBOX 260832 AAA TAFACK TAF AMD KACK 260832Z 2609/2706 20010KT P6SM BKN030 FM261200 22012G21KT P6SM BKN030 FM261600 22012KT P6SM BKN110 FM262200 22011KT 6SM BR VCSH BKN050 FM270100 23009KT 1SM BR VCSH BKN060 FM270400 29007KT 2SM BR SCT250=

USA.gov is the U.S. government's official web portal to all federal, state and local government web resources and services.